sensor_id;sensor_type;location;lat;lon;timestamp;P1;durP1;ratioP1;P2;durP2;ratioP2
14738;SDS011;7461;52.440;13.540;2023-06-22T00:01:45;25.52;;;23.77;;
14738;SDS011;7461;52.440;13.540;2023-06-22T00:04:12;25.30;;;23.70;;
14738;SDS011;7461;52.440;13.540;2023-06-22T00:06:40;25.10;;;23.50;;
14738;SDS011;7461;52.440;13.540;2023-06-22T00:09:07;26.13;;;24.33;;
14738;SDS011;7461;52.440;13.540;2023-06-22T00:11:35;25.40;;;23.80;;
14738;SDS011;7461;52.440;13.540;2023-06-22T00:14:02;25.58;;;24.08;;
14738;SDS011;7461;52.440;13.540;2023-06-22T00:16:31;26.77;;;25.02;;
14738;SDS011;7461;52.440;13.540;2023-06-22T00:18:58;27.25;;;25.55;;
14738;SDS011;7461;52.440;13.540;2023-06-22T00:21:27;27.08;;;25.50;;
14738;SDS011;7461;52.440;13.540;2023-06-22T00:23:56;27.55;;;25.95;;
14738;SDS011;7461;52.440;13.540;2023-06-22T00:26:23;26.63;;;25.05;;
14738;SDS011;7461;52.440;13.540;2023-06-22T00:28:50;27.15;;;25.60;;
14738;SDS011;7461;52.440;13.540;2023-06-22T00:31:18;26.90;;;25.20;;
14738;SDS011;7461;52.440;13.540;2023-06-22T00:33:45;24.67;;;23.20;;
14738;SDS011;7461;52.440;13.540;2023-06-22T00:36:12;25.88;;;24.30;;
14738;SDS011;7461;52.440;13.540;2023-06-22T00:38:41;27.17;;;25.48;;
14738;SDS011;7461;52.440;13.540;2023-06-22T00:41:09;26.30;;;24.70;;
14738;SDS011;7461;52.440;13.540;2023-06-22T00:43:37;27.50;;;25.63;;
14738;SDS011;7461;52.440;13.540;2023-06-22T00:46:04;25.05;;;23.65;;
14738;SDS011;7461;52.440;13.540;2023-06-22T00:48:31;30.00;;;28.00;;
14738;SDS011;7461;52.440;13.540;2023-06-22T00:50:59;27.05;;;25.35;;
14738;SDS011;7461;52.440;13.540;2023-06-22T00:53:26;30.10;;;28.00;;
14738;SDS011;7461;52.440;13.540;2023-06-22T00:55:53;27.80;;;26.10;;
14738;SDS011;7461;52.440;13.540;2023-06-22T00:58:22;26.42;;;24.92;;
14738;SDS011;7461;52.440;13.540;2023-06-22T01:00:51;27.85;;;26.23;;
14738;SDS011;7461;52.440;13.540;2023-06-22T01:03:20;27.15;;;25.55;;
14738;SDS011;7461;52.440;13.540;2023-06-22T01:05:47;27.90;;;26.10;;
14738;SDS011;7461;52.440;13.540;2023-06-22T01:08:19;26.27;;;24.60;;
14738;SDS011;7461;52.440;13.540;2023-06-22T01:10:53;30.35;;;28.25;;
14738;SDS011;7461;52.440;13.540;2023-06-22T01:13:28;28.95;;;26.80;;
14738;SDS011;7461;52.440;13.540;2023-06-22T01:16:00;27.23;;;25.27;;
14738;SDS011;7461;52.440;13.540;2023-06-22T01:18:30;27.70;;;25.70;;
14738;SDS011;7461;52.440;13.540;2023-06-22T01:21:01;27.20;;;25.65;;
14738;SDS011;7461;52.440;13.540;2023-06-22T01:23:36;25.38;;;23.88;;
14738;SDS011;7461;52.440;13.540;2023-06-22T01:26:13;27.30;;;25.42;;
14738;SDS011;7461;52.440;13.540;2023-06-22T01:28:47;24.00;;;22.60;;
14738;SDS011;7461;52.440;13.540;2023-06-22T01:31:17;26.27;;;24.45;;
14738;SDS011;7461;52.440;13.540;2023-06-22T01:33:49;27.05;;;25.45;;
14738;SDS011;7461;52.440;13.540;2023-06-22T01:36:17;24.80;;;23.33;;
14738;SDS011;7461;52.440;13.540;2023-06-22T01:38:45;25.95;;;24.27;;
14738;SDS011;7461;52.440;13.540;2023-06-22T01:41:13;25.63;;;24.02;;
14738;SDS011;7461;52.440;13.540;2023-06-22T01:43:56;24.42;;;22.98;;
14738;SDS011;7461;52.440;13.540;2023-06-22T01:46:24;24.88;;;22.98;;
14738;SDS011;7461;52.440;13.540;2023-06-22T01:48:51;26.52;;;25.05;;
14738;SDS011;7461;52.440;13.540;2023-06-22T01:51:19;24.83;;;23.25;;
14738;SDS011;7461;52.440;13.540;2023-06-22T01:53:46;23.85;;;22.38;;
14738;SDS011;7461;52.440;13.540;2023-06-22T01:56:15;23.83;;;22.13;;
14738;SDS011;7461;52.440;13.540;2023-06-22T01:58:45;24.20;;;22.60;;
14738;SDS011;7461;52.440;13.540;2023-06-22T02:01:19;25.83;;;23.98;;
14738;SDS011;7461;52.440;13.540;2023-06-22T02:03:52;27.27;;;25.23;;
14738;SDS011;7461;52.440;13.540;2023-06-22T02:06:30;26.15;;;24.50;;
14738;SDS011;7461;52.440;13.540;2023-06-22T02:09:02;26.95;;;25.15;;
14738;SDS011;7461;52.440;13.540;2023-06-22T02:11:35;27.13;;;25.52;;
14738;SDS011;7461;52.440;13.540;2023-06-22T02:14:04;28.00;;;26.10;;
14738;SDS011;7461;52.440;13.540;2023-06-22T02:16:34;26.67;;;25.00;;
14738;SDS011;7461;52.440;13.540;2023-06-22T02:19:03;25.45;;;23.95;;
14738;SDS011;7461;52.440;13.540;2023-06-22T02:21:31;24.45;;;22.88;;
14738;SDS011;7461;52.440;13.540;2023-06-22T02:23:58;26.20;;;24.38;;
14738;SDS011;7461;52.440;13.540;2023-06-22T02:26:25;25.27;;;23.67;;
14738;SDS011;7461;52.440;13.540;2023-06-22T02:28:53;25.83;;;23.75;;
14738;SDS011;7461;52.440;13.540;2023-06-22T02:31:20;28.23;;;26.60;;
14738;SDS011;7461;52.440;13.540;2023-06-22T02:33:49;25.67;;;24.08;;
14738;SDS011;7461;52.440;13.540;2023-06-22T02:36:16;24.98;;;23.42;;
14738;SDS011;7461;52.440;13.540;2023-06-22T02:38:47;28.50;;;26.67;;
14738;SDS011;7461;52.440;13.540;2023-06-22T02:41:14;27.67;;;25.63;;
14738;SDS011;7461;52.440;13.540;2023-06-22T02:43:44;28.75;;;26.70;;
14738;SDS011;7461;52.440;13.540;2023-06-22T02:46:11;27.80;;;25.92;;
14738;SDS011;7461;52.440;13.540;2023-06-22T02:48:39;28.20;;;25.98;;
14738;SDS011;7461;52.440;13.540;2023-06-22T02:51:07;28.45;;;26.75;;
14738;SDS011;7461;52.440;13.540;2023-06-22T02:53:34;27.00;;;25.30;;
14738;SDS011;7461;52.440;13.540;2023-06-22T02:56:02;28.55;;;26.65;;
14738;SDS011;7461;52.440;13.540;2023-06-22T02:58:35;26.08;;;24.38;;
14738;SDS011;7461;52.440;13.540;2023-06-22T03:01:06;28.52;;;26.80;;
14738;SDS011;7461;52.440;13.540;2023-06-22T03:03:35;30.25;;;28.45;;
14738;SDS011;7461;52.440;13.540;2023-06-22T03:06:02;28.80;;;26.90;;
14738;SDS011;7461;52.440;13.540;2023-06-22T03:08:30;29.38;;;27.58;;
14738;SDS011;7461;52.440;13.540;2023-06-22T03:10:57;32.35;;;30.27;;
14738;SDS011;7461;52.440;13.540;2023-06-22T03:13:24;30.77;;;28.88;;
14738;SDS011;7461;52.440;13.540;2023-06-22T03:15:53;30.67;;;28.67;;
14738;SDS011;7461;52.440;13.540;2023-06-22T03:18:20;31.02;;;29.17;;
14738;SDS011;7461;52.440;13.540;2023-06-22T03:20:48;31.13;;;29.13;;
14738;SDS011;7461;52.440;13.540;2023-06-22T03:23:15;33.53;;;31.38;;
14738;SDS011;7461;52.440;13.540;2023-06-22T03:25:43;29.60;;;27.83;;
14738;SDS011;7461;52.440;13.540;2023-06-22T03:28:10;31.08;;;28.80;;
14738;SDS011;7461;52.440;13.540;2023-06-22T03:30:37;30.88;;;29.05;;
14738;SDS011;7461;52.440;13.540;2023-06-22T03:33:05;33.17;;;30.77;;
14738;SDS011;7461;52.440;13.540;2023-06-22T03:35:32;32.58;;;30.38;;
14738;SDS011;7461;52.440;13.540;2023-06-22T03:37:59;32.85;;;30.58;;
14738;SDS011;7461;52.440;13.540;2023-06-22T03:40:25;31.98;;;30.00;;
14738;SDS011;7461;52.440;13.540;2023-06-22T03:42:54;31.92;;;29.83;;
14738;SDS011;7461;52.440;13.540;2023-06-22T03:45:21;31.35;;;29.35;;
14738;SDS011;7461;52.440;13.540;2023-06-22T03:47:48;31.25;;;29.25;;
14738;SDS011;7461;52.440;13.540;2023-06-22T03:50:15;31.05;;;29.05;;
14738;SDS011;7461;52.440;13.540;2023-06-22T03:52:45;31.52;;;29.52;;
14738;SDS011;7461;52.440;13.540;2023-06-22T03:55:12;30.60;;;28.55;;
14738;SDS011;7461;52.440;13.540;2023-06-22T03:57:39;31.52;;;29.42;;
14738;SDS011;7461;52.440;13.540;2023-06-22T04:00:08;32.35;;;30.45;;
14738;SDS011;7461;52.440;13.540;2023-06-22T04:02:36;30.33;;;28.38;;
14738;SDS011;7461;52.440;13.540;2023-06-22T04:05:03;32.00;;;29.50;;
14738;SDS011;7461;52.440;13.540;2023-06-22T04:07:31;33.47;;;31.23;;
14738;SDS011;7461;52.440;13.540;2023-06-22T04:09:58;32.83;;;30.88;;
14738;SDS011;7461;52.440;13.540;2023-06-22T04:12:25;32.67;;;30.38;;
14738;SDS011;7461;52.440;13.540;2023-06-22T04:14:55;31.90;;;29.70;;
14738;SDS011;7461;52.440;13.540;2023-06-22T04:17:23;32.45;;;30.30;;
14738;SDS011;7461;52.440;13.540;2023-06-22T04:19:51;31.30;;;29.02;;
14738;SDS011;7461;52.440;13.540;2023-06-22T04:22:18;32.38;;;30.17;;
14738;SDS011;7461;52.440;13.540;2023-06-22T04:24:48;29.70;;;27.90;;
14738;SDS011;7461;52.440;13.540;2023-06-22T04:27:16;27.30;;;25.60;;
14738;SDS011;7461;52.440;13.540;2023-06-22T04:29:44;29.10;;;27.10;;
14738;SDS011;7461;52.440;13.540;2023-06-22T04:32:13;26.83;;;25.00;;
14738;SDS011;7461;52.440;13.540;2023-06-22T04:34:42;28.15;;;26.35;;
14738;SDS011;7461;52.440;13.540;2023-06-22T04:37:09;27.83;;;26.13;;
14738;SDS011;7461;52.440;13.540;2023-06-22T04:39:40;28.00;;;26.20;;
14738;SDS011;7461;52.440;13.540;2023-06-22T04:42:07;26.40;;;24.75;;
14738;SDS011;7461;52.440;13.540;2023-06-22T04:44:37;26.80;;;24.80;;
14738;SDS011;7461;52.440;13.540;2023-06-22T04:47:05;23.35;;;21.75;;
14738;SDS011;7461;52.440;13.540;2023-06-22T04:49:33;23.15;;;21.63;;
14738;SDS011;7461;52.440;13.540;2023-06-22T04:52:04;22.02;;;20.73;;
14738;SDS011;7461;52.440;13.540;2023-06-22T04:54:33;22.90;;;21.23;;
14738;SDS011;7461;52.440;13.540;2023-06-22T04:57:00;22.60;;;20.88;;
14738;SDS011;7461;52.440;13.540;2023-06-22T04:59:28;23.00;;;21.35;;
14738;SDS011;7461;52.440;13.540;2023-06-22T05:01:56;22.05;;;20.50;;
14738;SDS011;7461;52.440;13.540;2023-06-22T05:04:24;20.85;;;19.52;;
14738;SDS011;7461;52.440;13.540;2023-06-22T05:06:52;19.05;;;17.75;;
14738;SDS011;7461;52.440;13.540;2023-06-22T05:09:22;20.13;;;18.80;;
14738;SDS011;7461;52.440;13.540;2023-06-22T05:11:50;19.90;;;18.50;;
14738;SDS011;7461;52.440;13.540;2023-06-22T05:14:17;19.85;;;18.60;;
14738;SDS011;7461;52.440;13.540;2023-06-22T05:16:46;16.23;;;15.32;;
14738;SDS011;7461;52.440;13.540;2023-06-22T05:19:13;18.10;;;17.10;;
14738;SDS011;7461;52.440;13.540;2023-06-22T05:21:40;17.10;;;15.90;;
14738;SDS011;7461;52.440;13.540;2023-06-22T05:24:07;18.75;;;17.58;;
14738;SDS011;7461;52.440;13.540;2023-06-22T05:26:36;17.77;;;16.63;;
14738;SDS011;7461;52.440;13.540;2023-06-22T05:29:03;16.50;;;15.50;;
14738;SDS011;7461;52.440;13.540;2023-06-22T05:31:30;17.13;;;15.98;;
14738;SDS011;7461;52.440;13.540;2023-06-22T05:33:57;16.63;;;15.27;;
14738;SDS011;7461;52.440;13.540;2023-06-22T05:36:25;16.05;;;14.85;;
14738;SDS011;7461;52.440;13.540;2023-06-22T05:38:52;16.13;;;15.18;;
14738;SDS011;7461;52.440;13.540;2023-06-22T05:41:19;15.95;;;14.85;;
14738;SDS011;7461;52.440;13.540;2023-06-22T05:43:48;14.63;;;13.48;;
14738;SDS011;7461;52.440;13.540;2023-06-22T05:46:15;12.70;;;11.90;;
14738;SDS011;7461;52.440;13.540;2023-06-22T05:48:42;13.00;;;12.00;;
14738;SDS011;7461;52.440;13.540;2023-06-22T05:51:09;12.63;;;11.82;;
14738;SDS011;7461;52.440;13.540;2023-06-22T05:53:36;13.93;;;13.13;;
14738;SDS011;7461;52.440;13.540;2023-06-22T05:56:03;12.70;;;11.95;;
14738;SDS011;7461;52.440;13.540;2023-06-22T05:58:30;12.38;;;11.45;;
14738;SDS011;7461;52.440;13.540;2023-06-22T06:00:59;12.43;;;10.82;;
14738;SDS011;7461;52.440;13.540;2023-06-22T06:03:26;13.30;;;12.48;;
14738;SDS011;7461;52.440;13.540;2023-06-22T06:05:54;12.82;;;11.95;;
14738;SDS011;7461;52.440;13.540;2023-06-22T06:08:21;12.45;;;11.75;;
14738;SDS011;7461;52.440;13.540;2023-06-22T06:10:48;10.82;;;10.23;;
14738;SDS011;7461;52.440;13.540;2023-06-22T06:13:18;10.52;;;9.90;;
14738;SDS011;7461;52.440;13.540;2023-06-22T06:15:45;10.48;;;9.88;;
14738;SDS011;7461;52.440;13.540;2023-06-22T06:18:14;12.75;;;11.23;;
14738;SDS011;7461;52.440;13.540;2023-06-22T06:20:41;12.10;;;11.20;;
14738;SDS011;7461;52.440;13.540;2023-06-22T06:23:08;11.95;;;10.85;;
14738;SDS011;7461;52.440;13.540;2023-06-22T06:25:35;12.25;;;11.00;;
14738;SDS011;7461;52.440;13.540;2023-06-22T06:28:02;10.82;;;10.18;;
14738;SDS011;7461;52.440;13.540;2023-06-22T06:30:30;9.68;;;9.07;;
14738;SDS011;7461;52.440;13.540;2023-06-22T06:32:57;9.13;;;8.43;;
14738;SDS011;7461;52.440;13.540;2023-06-22T06:35:25;10.43;;;9.73;;
14738;SDS011;7461;52.440;13.540;2023-06-22T06:37:52;9.75;;;8.98;;
14738;SDS011;7461;52.440;13.540;2023-06-22T06:40:19;9.23;;;8.52;;
14738;SDS011;7461;52.440;13.540;2023-06-22T06:42:47;10.95;;;9.93;;
14738;SDS011;7461;52.440;13.540;2023-06-22T06:45:15;10.13;;;9.43;;
14738;SDS011;7461;52.440;13.540;2023-06-22T06:47:43;9.80;;;9.00;;
14738;SDS011;7461;52.440;13.540;2023-06-22T06:50:11;9.45;;;8.85;;
14738;SDS011;7461;52.440;13.540;2023-06-22T06:52:39;9.70;;;9.07;;
14738;SDS011;7461;52.440;13.540;2023-06-22T06:55:08;8.82;;;8.32;;
14738;SDS011;7461;52.440;13.540;2023-06-22T06:57:37;11.40;;;8.77;;
14738;SDS011;7461;52.440;13.540;2023-06-22T07:00:05;9.35;;;8.48;;
14738;SDS011;7461;52.440;13.540;2023-06-22T07:02:37;8.20;;;7.63;;
14738;SDS011;7461;52.440;13.540;2023-06-22T07:05:04;10.88;;;9.98;;
14738;SDS011;7461;52.440;13.540;2023-06-22T07:07:31;9.40;;;8.80;;
14738;SDS011;7461;52.440;13.540;2023-06-22T07:10:00;9.32;;;8.77;;
14738;SDS011;7461;52.440;13.540;2023-06-22T07:12:28;9.80;;;8.32;;
14738;SDS011;7461;52.440;13.540;2023-06-22T07:14:57;10.13;;;9.32;;
14738;SDS011;7461;52.440;13.540;2023-06-22T07:17:28;8.65;;;8.10;;
14738;SDS011;7461;52.440;13.540;2023-06-22T07:19:55;7.72;;;7.32;;
14738;SDS011;7461;52.440;13.540;2023-06-22T07:22:21;7.95;;;7.45;;
14738;SDS011;7461;52.440;13.540;2023-06-22T07:24:48;8.13;;;7.63;;
14738;SDS011;7461;52.440;13.540;2023-06-22T07:27:17;8.27;;;7.53;;
14738;SDS011;7461;52.440;13.540;2023-06-22T07:29:45;8.52;;;7.82;;
14738;SDS011;7461;52.440;13.540;2023-06-22T07:32:11;6.93;;;6.53;;
14738;SDS011;7461;52.440;13.540;2023-06-22T07:34:38;8.00;;;7.60;;
14738;SDS011;7461;52.440;13.540;2023-06-22T07:37:06;6.55;;;6.05;;
14738;SDS011;7461;52.440;13.540;2023-06-22T07:39:33;7.22;;;6.85;;
14738;SDS011;7461;52.440;13.540;2023-06-22T07:42:00;7.53;;;7.00;;
14738;SDS011;7461;52.440;13.540;2023-06-22T07:44:28;7.05;;;6.55;;
14738;SDS011;7461;52.440;13.540;2023-06-22T07:46:55;6.18;;;5.78;;
14738;SDS011;7461;52.440;13.540;2023-06-22T07:49:22;6.53;;;6.03;;
14738;SDS011;7461;52.440;13.540;2023-06-22T07:51:49;5.82;;;5.43;;
14738;SDS011;7461;52.440;13.540;2023-06-22T07:54:16;5.57;;;5.18;;
14738;SDS011;7461;52.440;13.540;2023-06-22T07:56:43;5.95;;;5.40;;
14738;SDS011;7461;52.440;13.540;2023-06-22T07:59:10;6.68;;;6.28;;
14738;SDS011;7461;52.440;13.540;2023-06-22T08:01:38;5.20;;;4.90;;
14738;SDS011;7461;52.440;13.540;2023-06-22T08:04:05;6.05;;;5.55;;
14738;SDS011;7461;52.440;13.540;2023-06-22T08:06:32;5.97;;;5.68;;
14738;SDS011;7461;52.440;13.540;2023-06-22T08:08:59;6.50;;;6.00;;
14738;SDS011;7461;52.440;13.540;2023-06-22T08:11:26;6.30;;;5.75;;
14738;SDS011;7461;52.440;13.540;2023-06-22T08:13:53;6.00;;;5.70;;
14738;SDS011;7461;52.440;13.540;2023-06-22T08:16:20;7.00;;;6.50;;
14738;SDS011;7461;52.440;13.540;2023-06-22T08:18:49;7.68;;;7.18;;
14738;SDS011;7461;52.440;13.540;2023-06-22T08:21:16;7.07;;;6.32;;
14738;SDS011;7461;52.440;13.540;2023-06-22T08:23:43;8.07;;;7.53;;
14738;SDS011;7461;52.440;13.540;2023-06-22T08:26:10;6.50;;;6.00;;
14738;SDS011;7461;52.440;13.540;2023-06-22T08:28:37;6.82;;;6.25;;
14738;SDS011;7461;52.440;13.540;2023-06-22T08:31:04;8.40;;;7.85;;
14738;SDS011;7461;52.440;13.540;2023-06-22T08:33:31;6.70;;;6.30;;
14738;SDS011;7461;52.440;13.540;2023-06-22T08:35:59;7.32;;;5.68;;
14738;SDS011;7461;52.440;13.540;2023-06-22T08:38:26;7.03;;;6.28;;
14738;SDS011;7461;52.440;13.540;2023-06-22T08:40:53;6.68;;;5.43;;
14738;SDS011;7461;52.440;13.540;2023-06-22T08:43:20;10.75;;;5.88;;
14738;SDS011;7461;52.440;13.540;2023-06-22T08:45:54;5.40;;;5.10;;
14738;SDS011;7461;52.440;13.540;2023-06-22T08:48:21;7.13;;;5.95;;
14738;SDS011;7461;52.440;13.540;2023-06-22T08:50:48;6.63;;;6.03;;
14738;SDS011;7461;52.440;13.540;2023-06-22T08:56:38;6.18;;;5.78;;
14738;SDS011;7461;52.440;13.540;2023-06-22T08:59:05;6.75;;;6.35;;
14738;SDS011;7461;52.440;13.540;2023-06-22T09:01:33;6.30;;;5.93;;
14738;SDS011;7461;52.440;13.540;2023-06-22T09:03:59;6.35;;;5.95;;
14738;SDS011;7461;52.440;13.540;2023-06-22T09:06:26;6.50;;;6.10;;
14738;SDS011;7461;52.440;13.540;2023-06-22T09:08:56;6.50;;;5.18;;
14738;SDS011;7461;52.440;13.540;2023-06-22T09:11:24;6.22;;;5.82;;
14738;SDS011;7461;52.440;13.540;2023-06-22T09:13:53;9.60;;;6.15;;
14738;SDS011;7461;52.440;13.540;2023-06-22T09:16:20;6.00;;;5.35;;
14738;SDS011;7461;52.440;13.540;2023-06-22T09:18:47;5.82;;;4.95;;
14738;SDS011;7461;52.440;13.540;2023-06-22T09:21:14;5.25;;;4.95;;
14738;SDS011;7461;52.440;13.540;2023-06-22T09:23:41;5.35;;;5.00;;
14738;SDS011;7461;52.440;13.540;2023-06-22T09:26:10;5.38;;;5.13;;
14738;SDS011;7461;52.440;13.540;2023-06-22T09:28:37;4.93;;;4.57;;
14738;SDS011;7461;52.440;13.540;2023-06-22T09:31:06;5.80;;;5.40;;
14738;SDS011;7461;52.440;13.540;2023-06-22T09:33:33;5.88;;;5.55;;
14738;SDS011;7461;52.440;13.540;2023-06-22T09:35:59;6.60;;;6.20;;
14738;SDS011;7461;52.440;13.540;2023-06-22T09:38:26;5.28;;;4.97;;
14738;SDS011;7461;52.440;13.540;2023-06-22T09:40:53;5.40;;;5.10;;
14738;SDS011;7461;52.440;13.540;2023-06-22T09:43:20;5.50;;;5.20;;
14738;SDS011;7461;52.440;13.540;2023-06-22T09:45:47;4.63;;;4.32;;
14738;SDS011;7461;52.440;13.540;2023-06-22T09:48:15;4.57;;;4.38;;
14738;SDS011;7461;52.440;13.540;2023-06-22T09:50:42;4.80;;;4.50;;
14738;SDS011;7461;52.440;13.540;2023-06-22T09:53:09;4.40;;;4.10;;
14738;SDS011;7461;52.440;13.540;2023-06-22T09:55:36;4.25;;;4.05;;
14738;SDS011;7461;52.440;13.540;2023-06-22T09:58:03;4.63;;;4.32;;
14738;SDS011;7461;52.440;13.540;2023-06-22T10:00:30;4.28;;;3.97;;
14738;SDS011;7461;52.440;13.540;2023-06-22T10:02:57;5.05;;;4.75;;
14738;SDS011;7461;52.440;13.540;2023-06-22T10:05:25;4.78;;;4.47;;
14738;SDS011;7461;52.440;13.540;2023-06-22T10:07:52;4.88;;;4.57;;
14738;SDS011;7461;52.440;13.540;2023-06-22T10:10:19;5.07;;;4.72;;
14738;SDS011;7461;52.440;13.540;2023-06-22T10:12:47;4.50;;;4.20;;
14738;SDS011;7461;52.440;13.540;2023-06-22T10:15:20;5.55;;;5.15;;
14738;SDS011;7461;52.440;13.540;2023-06-22T10:17:47;5.00;;;4.60;;
14738;SDS011;7461;52.440;13.540;2023-06-22T10:20:14;5.28;;;4.88;;
14738;SDS011;7461;52.440;13.540;2023-06-22T10:22:44;4.57;;;4.30;;
14738;SDS011;7461;52.440;13.540;2023-06-22T10:25:12;4.10;;;3.90;;
14738;SDS011;7461;52.440;13.540;2023-06-22T10:27:39;4.57;;;4.15;;
14738;SDS011;7461;52.440;13.540;2023-06-22T10:30:06;5.22;;;4.82;;
14738;SDS011;7461;52.440;13.540;2023-06-22T10:32:34;4.78;;;4.45;;
14738;SDS011;7461;52.440;13.540;2023-06-22T10:35:01;4.20;;;4.00;;
14738;SDS011;7461;52.440;13.540;2023-06-22T10:37:29;5.00;;;4.70;;
14738;SDS011;7461;52.440;13.540;2023-06-22T10:39:57;5.32;;;4.93;;
14738;SDS011;7461;52.440;13.540;2023-06-22T10:42:24;4.95;;;4.70;;
14738;SDS011;7461;52.440;13.540;2023-06-22T10:44:51;4.45;;;4.25;;
14738;SDS011;7461;52.440;13.540;2023-06-22T10:47:18;4.63;;;4.32;;
14738;SDS011;7461;52.440;13.540;2023-06-22T10:49:45;5.10;;;4.70;;
14738;SDS011;7461;52.440;13.540;2023-06-22T10:52:12;4.75;;;4.45;;
14738;SDS011;7461;52.440;13.540;2023-06-22T10:54:39;5.30;;;4.85;;
14738;SDS011;7461;52.440;13.540;2023-06-22T10:57:07;5.47;;;5.18;;
14738;SDS011;7461;52.440;13.540;2023-06-22T10:59:34;5.18;;;4.88;;
14738;SDS011;7461;52.440;13.540;2023-06-22T11:02:01;5.10;;;4.82;;
14738;SDS011;7461;52.440;13.540;2023-06-22T11:04:28;5.68;;;5.20;;
14738;SDS011;7461;52.440;13.540;2023-06-22T11:06:55;6.28;;;4.57;;
14738;SDS011;7461;52.440;13.540;2023-06-22T11:09:22;4.45;;;4.25;;
14738;SDS011;7461;52.440;13.540;2023-06-22T11:11:49;5.05;;;4.68;;
14738;SDS011;7461;52.440;13.540;2023-06-22T11:14:19;5.40;;;5.10;;
14738;SDS011;7461;52.440;13.540;2023-06-22T11:16:47;6.10;;;5.68;;
14738;SDS011;7461;52.440;13.540;2023-06-22T11:19:14;5.50;;;5.20;;
14738;SDS011;7461;52.440;13.540;2023-06-22T11:21:41;6.95;;;6.30;;
14738;SDS011;7461;52.440;13.540;2023-06-22T11:24:08;5.40;;;5.10;;
14738;SDS011;7461;52.440;13.540;2023-06-22T11:26:35;6.32;;;5.82;;
14738;SDS011;7461;52.440;13.540;2023-06-22T11:29:02;5.80;;;5.43;;
14738;SDS011;7461;52.440;13.540;2023-06-22T11:31:31;5.38;;;4.97;;
14738;SDS011;7461;52.440;13.540;2023-06-22T11:33:58;6.22;;;5.57;;
14738;SDS011;7461;52.440;13.540;2023-06-22T11:36:25;5.20;;;4.95;;
14738;SDS011;7461;52.440;13.540;2023-06-22T11:38:54;5.20;;;4.90;;
14738;SDS011;7461;52.440;13.540;2023-06-22T11:41:21;6.82;;;6.43;;
14738;SDS011;7461;52.440;13.540;2023-06-22T11:43:48;6.15;;;5.60;;
14738;SDS011;7461;52.440;13.540;2023-06-22T11:46:15;5.93;;;5.63;;
14738;SDS011;7461;52.440;13.540;2023-06-22T11:48:43;5.70;;;4.90;;
14738;SDS011;7461;52.440;13.540;2023-06-22T11:51:10;5.82;;;5.43;;
14738;SDS011;7461;52.440;13.540;2023-06-22T11:53:38;6.57;;;6.10;;
14738;SDS011;7461;52.440;13.540;2023-06-22T11:56:05;5.93;;;5.57;;
14738;SDS011;7461;52.440;13.540;2023-06-22T11:58:32;5.28;;;4.97;;
14738;SDS011;7461;52.440;13.540;2023-06-22T12:00:59;6.35;;;5.85;;
14738;SDS011;7461;52.440;13.540;2023-06-22T12:03:26;6.28;;;5.88;;
14738;SDS011;7461;52.440;13.540;2023-06-22T12:05:55;5.43;;;5.13;;
14738;SDS011;7461;52.440;13.540;2023-06-22T12:08:22;5.55;;;5.25;;
14738;SDS011;7461;52.440;13.540;2023-06-22T12:10:50;5.57;;;5.28;;
14738;SDS011;7461;52.440;13.540;2023-06-22T12:13:18;5.60;;;5.30;;
14738;SDS011;7461;52.440;13.540;2023-06-22T12:15:45;5.75;;;5.38;;
14738;SDS011;7461;52.440;13.540;2023-06-22T12:18:12;5.43;;;5.13;;
14738;SDS011;7461;52.440;13.540;2023-06-22T12:20:40;6.05;;;5.65;;
14738;SDS011;7461;52.440;13.540;2023-06-22T12:23:08;5.50;;;5.20;;
14738;SDS011;7461;52.440;13.540;2023-06-22T12:25:35;6.50;;;6.10;;
14738;SDS011;7461;52.440;13.540;2023-06-22T12:28:02;7.18;;;6.57;;
14738;SDS011;7461;52.440;13.540;2023-06-22T12:30:29;6.18;;;5.72;;
14738;SDS011;7461;52.440;13.540;2023-06-22T12:32:56;6.38;;;6.00;;
14738;SDS011;7461;52.440;13.540;2023-06-22T12:35:23;5.10;;;4.80;;
14738;SDS011;7461;52.440;13.540;2023-06-22T12:37:50;6.32;;;6.03;;
14738;SDS011;7461;52.440;13.540;2023-06-22T12:40:19;6.13;;;5.72;;
14738;SDS011;7461;52.440;13.540;2023-06-22T12:42:46;7.35;;;6.85;;
14738;SDS011;7461;52.440;13.540;2023-06-22T12:45:13;7.38;;;6.97;;
14738;SDS011;7461;52.440;13.540;2023-06-22T12:47:40;6.10;;;5.72;;
14738;SDS011;7461;52.440;13.540;2023-06-22T12:50:08;6.43;;;6.03;;
14738;SDS011;7461;52.440;13.540;2023-06-22T12:52:36;7.18;;;6.68;;
14738;SDS011;7461;52.440;13.540;2023-06-22T12:55:06;8.13;;;7.63;;
14738;SDS011;7461;52.440;13.540;2023-06-22T12:57:35;6.70;;;6.30;;
14738;SDS011;7461;52.440;13.540;2023-06-22T13:00:02;5.97;;;5.68;;
14738;SDS011;7461;52.440;13.540;2023-06-22T13:02:30;6.00;;;5.70;;
14738;SDS011;7461;52.440;13.540;2023-06-22T13:04:57;7.03;;;6.53;;
14738;SDS011;7461;52.440;13.540;2023-06-22T13:07:24;7.03;;;6.63;;
14738;SDS011;7461;52.440;13.540;2023-06-22T13:09:51;6.40;;;6.00;;
14738;SDS011;7461;52.440;13.540;2023-06-22T13:12:19;7.15;;;6.65;;
14738;SDS011;7461;52.440;13.540;2023-06-22T13:14:47;5.80;;;5.50;;
14738;SDS011;7461;52.440;13.540;2023-06-22T13:17:14;6.40;;;6.10;;
14738;SDS011;7461;52.440;13.540;2023-06-22T13:19:44;6.22;;;5.70;;
14738;SDS011;7461;52.440;13.540;2023-06-22T13:22:25;5.80;;;5.35;;
14738;SDS011;7461;52.440;13.540;2023-06-22T13:24:54;7.07;;;6.68;;
14738;SDS011;7461;52.440;13.540;2023-06-22T13:27:21;6.53;;;6.13;;
14738;SDS011;7461;52.440;13.540;2023-06-22T13:29:49;6.25;;;5.75;;
14738;SDS011;7461;52.440;13.540;2023-06-22T13:32:16;7.38;;;6.97;;
14738;SDS011;7461;52.440;13.540;2023-06-22T13:34:45;7.35;;;6.95;;
14738;SDS011;7461;52.440;13.540;2023-06-22T13:37:12;7.07;;;6.68;;
14738;SDS011;7461;52.440;13.540;2023-06-22T13:39:39;7.80;;;7.40;;
14738;SDS011;7461;52.440;13.540;2023-06-22T13:42:07;7.60;;;7.10;;
14738;SDS011;7461;52.440;13.540;2023-06-22T13:44:34;7.32;;;6.82;;
14738;SDS011;7461;52.440;13.540;2023-06-22T13:47:02;7.35;;;6.85;;
14738;SDS011;7461;52.440;13.540;2023-06-22T13:49:30;7.15;;;6.75;;
14738;SDS011;7461;52.440;13.540;2023-06-22T13:51:57;7.38;;;6.72;;
14738;SDS011;7461;52.440;13.540;2023-06-22T13:54:24;7.20;;;6.60;;
14738;SDS011;7461;52.440;13.540;2023-06-22T13:56:51;7.63;;;7.22;;
14738;SDS011;7461;52.440;13.540;2023-06-22T13:59:18;7.63;;;6.97;;
14738;SDS011;7461;52.440;13.540;2023-06-22T14:01:46;6.38;;;5.97;;
14738;SDS011;7461;52.440;13.540;2023-06-22T14:04:14;6.90;;;6.40;;
14738;SDS011;7461;52.440;13.540;2023-06-22T14:06:41;6.80;;;6.13;;
14738;SDS011;7461;52.440;13.540;2023-06-22T14:09:08;7.38;;;6.97;;
14738;SDS011;7461;52.440;13.540;2023-06-22T14:11:35;6.47;;;6.07;;
14738;SDS011;7461;52.440;13.540;2023-06-22T14:14:02;7.47;;;7.00;;
14738;SDS011;7461;52.440;13.540;2023-06-22T14:16:29;6.82;;;6.32;;
14738;SDS011;7461;52.440;13.540;2023-06-22T14:18:56;6.20;;;5.90;;
14738;SDS011;7461;52.440;13.540;2023-06-22T14:21:25;7.30;;;6.80;;
14738;SDS011;7461;52.440;13.540;2023-06-22T14:23:52;7.57;;;6.97;;
14738;SDS011;7461;52.440;13.540;2023-06-22T14:26:19;7.80;;;7.40;;
14738;SDS011;7461;52.440;13.540;2023-06-22T14:28:47;7.20;;;6.80;;
14738;SDS011;7461;52.440;13.540;2023-06-22T14:31:15;6.72;;;6.25;;
14738;SDS011;7461;52.440;13.540;2023-06-22T14:33:45;8.13;;;7.60;;
14738;SDS011;7461;52.440;13.540;2023-06-22T14:36:13;7.30;;;6.80;;
14738;SDS011;7461;52.440;13.540;2023-06-22T14:38:41;6.35;;;5.93;;
14738;SDS011;7461;52.440;13.540;2023-06-22T14:41:09;7.40;;;7.00;;
14738;SDS011;7461;52.440;13.540;2023-06-22T14:43:36;7.05;;;6.55;;